Wallace, California
Current Conditions -  °F | °C
As of 11:55 PM on Sunday 23 Nov 2014 (Local Time) from KSCK Reporting Station
Clear Clear  
Wind Chill: 43°   Ceiling: Unl
Heat Index: 43°   Visibility: 10mi
Dew Point: 41°   Wind: 0mph
Humidity: 93%   Direction: NA
Pressure: 30.33"   Gusts: NA
Location:  38.19°N, 120.98°W
Report Text: KSCK 240755Z AUTO 00000KT 10SM CLR 06/05 A3033 RMK AO2 SLP269 T00610050 401670050 $
Loading
Personal Weather Stations






























Interactive Weather Map New forecast layout! Learn more

10-Day Weather Forecast

Advertisements
Track Severe Weather on mobile